sensor_id;sensor_type;location;lat;lon;timestamp;pressure;altitude;pressure_sealevel;temperature;humidity
11710;BME280;5911;51.036;6.972;2023-02-12T00:00:42;102966.00;;;8.11;100.00
11710;BME280;5911;51.036;6.972;2023-02-12T00:03:12;102961.56;;;8.13;100.00
11710;BME280;5911;51.036;6.972;2023-02-12T00:05:40;102947.75;;;8.08;100.00
11710;BME280;5911;51.036;6.972;2023-02-12T00:08:08;102948.38;;;8.15;100.00
11710;BME280;5911;51.036;6.972;2023-02-12T00:10:39;102959.72;;;8.17;100.00
11710;BME280;5911;51.036;6.972;2023-02-12T00:13:08;102964.91;;;8.18;100.00
11710;BME280;5911;51.036;6.972;2023-02-12T00:15:37;102972.00;;;8.16;100.00
11710;BME280;5911;51.036;6.972;2023-02-12T00:18:05;102972.84;;;8.17;100.00
11710;BME280;5911;51.036;6.972;2023-02-12T00:20:38;102961.47;;;8.16;100.00
11710;BME280;5911;51.036;6.972;2023-02-12T00:23:06;102962.34;;;8.17;100.00
11710;BME280;5911;51.036;6.972;2023-02-12T00:25:34;102963.19;;;8.17;100.00
11710;BME280;5911;51.036;6.972;2023-02-12T00:28:01;102962.38;;;8.15;100.00
11710;BME280;5911;51.036;6.972;2023-02-12T00:30:29;102963.34;;;8.12;100.00
11710;BME280;5911;51.036;6.972;2023-02-12T00:32:58;102953.72;;;8.11;100.00
11710;BME280;5911;51.036;6.972;2023-02-12T00:35:26;102966.72;;;8.16;100.00
11710;BME280;5911;51.036;6.972;2023-02-12T00:37:55;102956.31;;;8.13;100.00
11710;BME280;5911;51.036;6.972;2023-02-12T00:40:23;102959.84;;;8.12;100.00
11710;BME280;5911;51.036;6.972;2023-02-12T00:42:51;102956.31;;;8.13;100.00
11710;BME280;5911;51.036;6.972;2023-02-12T00:45:19;102951.97;;;8.12;100.00
11710;BME280;5911;51.036;6.972;2023-02-12T00:47:47;102947.75;;;8.08;100.00
11710;BME280;5911;51.036;6.972;2023-02-12T00:50:15;102951.06;;;8.13;100.00
11710;BME280;5911;51.036;6.972;2023-02-12T00:52:43;102952.78;;;8.14;100.00
11710;BME280;5911;51.036;6.972;2023-02-12T00:55:12;102951.97;;;8.12;100.00
11710;BME280;5911;51.036;6.972;2023-02-12T00:57:40;102952.81;;;8.12;100.00
11710;BME280;5911;51.036;6.972;2023-02-12T01:00:09;102944.94;;;8.12;100.00
11710;BME280;5911;51.036;6.972;2023-02-12T01:02:37;102949.25;;;8.15;100.00
11710;BME280;5911;51.036;6.972;2023-02-12T01:05:06;102950.16;;;8.14;100.00
11710;BME280;5911;51.036;6.972;2023-02-12T01:07:34;102950.19;;;8.12;100.00
11710;BME280;5911;51.036;6.972;2023-02-12T01:10:05;102947.56;;;8.12;100.00
11710;BME280;5911;51.036;6.972;2023-02-12T01:12:35;102952.81;;;8.12;100.00
11710;BME280;5911;51.036;6.972;2023-02-12T01:15:03;102956.41;;;8.10;100.00
11710;BME280;5911;51.036;6.972;2023-02-12T01:17:31;102951.28;;;8.07;100.00
11710;BME280;5911;51.036;6.972;2023-02-12T01:19:59;102950.47;;;8.05;100.00
11710;BME280;5911;51.036;6.972;2023-02-12T01:22:27;102937.31;;;8.05;100.00
11710;BME280;5911;51.036;6.972;2023-02-12T01:24:55;102945.34;;;8.00;100.00
11710;BME280;5911;51.036;6.972;2023-02-12T01:27:26;102896.41;;;7.71;100.00
11710;BME280;5911;51.036;6.972;2023-02-12T01:29:56;102946.31;;;7.98;100.00
11710;BME280;5911;51.036;6.972;2023-02-12T01:32:26;102944.63;;;7.95;100.00
11710;BME280;5911;51.036;6.972;2023-02-12T01:34:54;102943.78;;;7.95;100.00
11710;BME280;5911;51.036;6.972;2023-02-12T01:37:22;102953.47;;;7.94;100.00
11710;BME280;5911;51.036;6.972;2023-02-12T01:39:51;102951.75;;;7.93;100.00
11710;BME280;5911;51.036;6.972;2023-02-12T01:42:19;102945.56;;;7.94;100.00
11710;BME280;5911;51.036;6.972;2023-02-12T01:47:49;102947.28;;;7.95;100.00
11710;BME280;5911;51.036;6.972;2023-02-12T01:50:18;102949.84;;;7.97;100.00
11710;BME280;5911;51.036;6.972;2023-02-12T01:52:49;102944.63;;;7.95;100.00
11710;BME280;5911;51.036;6.972;2023-02-12T01:55:18;102940.41;;;7.91;100.00
11710;BME280;5911;51.036;6.972;2023-02-12T01:57:47;102932.72;;;7.85;100.00
11710;BME280;5911;51.036;6.972;2023-02-12T02:00:18;102945.41;;;7.99;100.00
11710;BME280;5911;51.036;6.972;2023-02-12T02:02:48;102934.94;;;7.97;100.00
11710;BME280;5911;51.036;6.972;2023-02-12T02:05:26;102943.63;;;7.99;100.00
11710;BME280;5911;51.036;6.972;2023-02-12T02:07:57;102945.44;;;7.97;100.00
11710;BME280;5911;51.036;6.972;2023-02-12T02:10:25;102935.78;;;7.98;100.00
11710;BME280;5911;51.036;6.972;2023-02-12T02:12:53;102931.63;;;7.92;100.00
11710;BME280;5911;51.036;6.972;2023-02-12T02:15:40;102938.38;;;7.99;100.00
11710;BME280;5911;51.036;6.972;2023-02-12T02:18:18;102940.91;;;8.02;100.00
11710;BME280;5911;51.036;6.972;2023-02-12T02:21:17;102937.41;;;8.02;100.00
11710;BME280;5911;51.036;6.972;2023-02-12T02:24:01;102933.06;;;8.01;100.00
11710;BME280;5911;51.036;6.972;2023-02-12T02:26:53;102933.13;;;7.99;100.00
11710;BME280;5911;51.036;6.972;2023-02-12T02:32:30;102934.84;;;8.00;100.00
11710;BME280;5911;51.036;6.972;2023-02-12T02:35:07;102934.75;;;8.03;100.00
11710;BME280;5911;51.036;6.972;2023-02-12T02:37:42;102937.31;;;8.05;100.00
11710;BME280;5911;51.036;6.972;2023-02-12T02:40:17;102928.53;;;8.06;100.00
11710;BME280;5911;51.036;6.972;2023-02-12T02:42:51;102926.81;;;8.05;100.00
11710;BME280;5911;51.036;6.972;2023-02-12T02:45:23;102927.44;;;8.11;100.00
11710;BME280;5911;51.036;6.972;2023-02-12T02:47:59;102930.25;;;8.07;100.00
11710;BME280;5911;51.036;6.972;2023-02-12T02:50:31;102928.81;;;7.97;100.00
11710;BME280;5911;51.036;6.972;2023-02-12T02:53:04;102928.81;;;7.97;100.00
11710;BME280;5911;51.036;6.972;2023-02-12T02:55:36;102928.81;;;7.97;100.00
11710;BME280;5911;51.036;6.972;2023-02-12T02:58:11;102930.59;;;7.96;100.00
11710;BME280;5911;51.036;6.972;2023-02-12T03:00:43;102927.09;;;7.96;100.00
11710;BME280;5911;51.036;6.972;2023-02-12T03:03:18;102927.91;;;7.98;100.00
11710;BME280;5911;51.036;6.972;2023-02-12T03:05:50;102934.09;;;7.97;100.00
11710;BME280;5911;51.036;6.972;2023-02-12T03:08:22;102934.09;;;7.97;100.00
11710;BME280;5911;51.036;6.972;2023-02-12T03:10:55;102935.84;;;7.96;100.00
11710;BME280;5911;51.036;6.972;2023-02-12T03:13:27;102927.91;;;7.98;100.00
11710;BME280;5911;51.036;6.972;2023-02-12T03:16:02;102925.34;;;7.96;100.00
11710;BME280;5911;51.036;6.972;2023-02-12T03:18:35;102930.53;;;7.98;100.00
11710;BME280;5911;51.036;6.972;2023-02-12T03:21:11;102924.59;;;7.93;100.00
11710;BME280;5911;51.036;6.972;2023-02-12T03:23:43;102926.09;;;8.00;100.00
11710;BME280;5911;51.036;6.972;2023-02-12T03:26:16;102927.88;;;7.99;100.00
11710;BME280;5911;51.036;6.972;2023-02-12T03:28:47;102928.72;;;8.00;100.00
11710;BME280;5911;51.036;6.972;2023-02-12T03:31:23;102926.19;;;7.97;100.00
11710;BME280;5911;51.036;6.972;2023-02-12T03:34:03;102916.81;;;7.90;100.00
11710;BME280;5911;51.036;6.972;2023-02-12T03:36:37;102919.31;;;7.94;100.00
11710;BME280;5911;51.036;6.972;2023-02-12T03:39:11;102907.41;;;7.83;100.00
11710;BME280;5911;51.036;6.972;2023-02-12T03:41:45;102928.00;;;7.95;100.00
11710;BME280;5911;51.036;6.972;2023-02-12T03:44:21;102897.72;;;7.85;100.00
11710;BME280;5911;51.036;6.972;2023-02-12T03:46:58;102905.59;;;7.85;100.00
11710;BME280;5911;51.036;6.972;2023-02-12T03:49:31;102925.38;;;7.95;100.00
11710;BME280;5911;51.036;6.972;2023-02-12T03:52:02;102919.31;;;7.94;100.00
11710;BME280;5911;51.036;6.972;2023-02-12T03:54:30;102921.13;;;7.92;100.00
11710;BME280;5911;51.036;6.972;2023-02-12T03:57:02;102908.22;;;7.85;100.00
11710;BME280;5911;51.036;6.972;2023-02-12T03:59:34;102921.84;;;7.96;100.00
11710;BME280;5911;51.036;6.972;2023-02-12T04:02:04;102923.69;;;7.94;100.00
11710;BME280;5911;51.036;6.972;2023-02-12T04:04:33;102921.97;;;7.93;100.00
11710;BME280;5911;51.036;6.972;2023-02-12T04:07:01;102923.69;;;7.94;100.00
11710;BME280;5911;51.036;6.972;2023-02-12T04:09:30;102921.00;;;7.95;100.00
11710;BME280;5911;51.036;6.972;2023-02-12T04:12:08;102932.34;;;7.96;100.00
11710;BME280;5911;51.036;6.972;2023-02-12T04:14:45;102902.19;;;7.81;100.00
11710;BME280;5911;51.036;6.972;2023-02-12T04:17:21;102932.34;;;7.96;100.00
11710;BME280;5911;51.036;6.972;2023-02-12T04:20:04;102941.06;;;7.98;100.00
11710;BME280;5911;51.036;6.972;2023-02-12T04:22:44;102937.53;;;7.99;100.00
11710;BME280;5911;51.036;6.972;2023-02-12T04:25:20;102939.34;;;7.97;100.00
11710;BME280;5911;51.036;6.972;2023-02-12T04:27:55;102946.31;;;7.98;100.00
11710;BME280;5911;51.036;6.972;2023-02-12T04:30:27;102946.31;;;7.98;100.00
11710;BME280;5911;51.036;6.972;2023-02-12T04:32:59;102956.81;;;7.98;100.00
11710;BME280;5911;51.036;6.972;2023-02-12T04:35:31;102940.41;;;7.91;100.00
11710;BME280;5911;51.036;6.972;2023-02-12T04:38:06;102955.88;;;8.00;100.00
11710;BME280;5911;51.036;6.972;2023-02-12T04:40:38;102963.81;;;7.99;100.00
11710;BME280;5911;51.036;6.972;2023-02-12T04:43:07;102958.53;;;7.99;100.00
11710;BME280;5911;51.036;6.972;2023-02-12T04:45:36;102955.28;;;7.92;100.00
11710;BME280;5911;51.036;6.972;2023-02-12T04:48:04;102949.91;;;7.95;100.00
11710;BME280;5911;51.036;6.972;2023-02-12T04:50:39;102956.91;;;7.95;100.00
11710;BME280;5911;51.036;6.972;2023-02-12T04:53:08;102956.00;;;7.96;100.00
11710;BME280;5911;51.036;6.972;2023-02-12T04:55:36;102956.00;;;7.96;100.00
11710;BME280;5911;51.036;6.972;2023-02-12T04:58:04;102958.63;;;7.96;100.00
11710;BME280;5911;51.036;6.972;2023-02-12T05:00:32;102953.38;;;7.96;100.00
11710;BME280;5911;51.036;6.972;2023-02-12T05:03:00;102956.09;;;7.94;100.00
11710;BME280;5911;51.036;6.972;2023-02-12T05:05:28;102950.84;;;7.94;100.00
11710;BME280;5911;51.036;6.972;2023-02-12T05:07:57;102959.66;;;7.92;100.00
11710;BME280;5911;51.036;6.972;2023-02-12T05:10:25;102943.28;;;7.84;100.00
11710;BME280;5911;51.036;6.972;2023-02-12T05:12:53;102947.63;;;7.85;100.00
11710;BME280;5911;51.036;6.972;2023-02-12T05:15:22;102954.56;;;7.87;100.00
11710;BME280;5911;51.036;6.972;2023-02-12T05:17:49;102942.47;;;7.82;100.00
11710;BME280;5911;51.036;6.972;2023-02-12T05:20:17;102950.97;;;7.90;100.00
11710;BME280;5911;51.036;6.972;2023-02-12T05:22:45;102951.88;;;7.89;100.00
11710;BME280;5911;51.036;6.972;2023-02-12T05:25:14;102949.41;;;7.84;100.00
11710;BME280;5911;51.036;6.972;2023-02-12T05:27:42;102956.31;;;7.87;100.00
11710;BME280;5911;51.036;6.972;2023-02-12T05:30:10;102954.59;;;7.86;100.00
11710;BME280;5911;51.036;6.972;2023-02-12T05:32:38;102953.69;;;7.87;100.00
11710;BME280;5911;51.036;6.972;2023-02-12T05:35:06;102957.13;;;7.89;100.00
11710;BME280;5911;51.036;6.972;2023-02-12T05:37:35;102938.25;;;7.78;100.00
11710;BME280;5911;51.036;6.972;2023-02-12T05:40:04;102972.03;;;7.88;100.00
11710;BME280;5911;51.036;6.972;2023-02-12T05:42:35;102969.38;;;7.90;100.00
11710;BME280;5911;51.036;6.972;2023-02-12T05:45:03;102974.63;;;7.90;100.00
11710;BME280;5911;51.036;6.972;2023-02-12T05:47:31;102976.34;;;7.91;100.00
11710;BME280;5911;51.036;6.972;2023-02-12T05:49:59;102967.56;;;7.92;100.00
11710;BME280;5911;51.036;6.972;2023-02-12T05:52:27;102982.47;;;7.91;100.00
11710;BME280;5911;51.036;6.972;2023-02-12T05:54:55;102984.19;;;7.92;100.00
11710;BME280;5911;51.036;6.972;2023-02-12T05:57:22;102978.88;;;7.94;100.00
11710;BME280;5911;51.036;6.972;2023-02-12T05:59:52;102978.03;;;7.93;100.00
11710;BME280;5911;51.036;6.972;2023-02-12T06:02:19;102979.78;;;7.93;100.00
11710;BME280;5911;51.036;6.972;2023-02-12T06:04:47;102983.19;;;7.95;100.00
11710;BME280;5911;51.036;6.972;2023-02-12T06:07:15;102985.00;;;7.94;100.00
11710;BME280;5911;51.036;6.972;2023-02-12T06:09:43;102966.06;;;7.83;100.00
11710;BME280;5911;51.036;6.972;2023-02-12T06:12:11;102978.06;;;7.92;100.00
11710;BME280;5911;51.036;6.972;2023-02-12T06:14:39;102980.66;;;7.93;100.00
11710;BME280;5911;51.036;6.972;2023-02-12T06:17:09;102983.19;;;7.95;100.00
11710;BME280;5911;51.036;6.972;2023-02-12T06:19:37;102981.50;;;7.94;100.00
11710;BME280;5911;51.036;6.972;2023-02-12T06:22:05;102978.94;;;7.92;100.00
11710;BME280;5911;51.036;6.972;2023-02-12T06:24:32;102976.31;;;7.92;100.00
11710;BME280;5911;51.036;6.972;2023-02-12T06:27:00;102976.25;;;7.94;100.00
11710;BME280;5911;51.036;6.972;2023-02-12T06:29:28;102963.25;;;7.89;100.00
11710;BME280;5911;51.036;6.972;2023-02-12T06:32:00;102979.78;;;7.93;100.00
11710;BME280;5911;51.036;6.972;2023-02-12T06:34:33;102983.31;;;7.92;100.00
11710;BME280;5911;51.036;6.972;2023-02-12T06:37:01;102981.56;;;7.92;100.00
11710;BME280;5911;51.036;6.972;2023-02-12T06:39:28;102985.03;;;7.93;100.00
11710;BME280;5911;51.036;6.972;2023-02-12T06:41:56;102980.69;;;7.92;100.00
11710;BME280;5911;51.036;6.972;2023-02-12T06:44:24;102978.06;;;7.92;100.00
11710;BME280;5911;51.036;6.972;2023-02-12T06:46:52;102987.66;;;7.93;100.00
11710;BME280;5911;51.036;6.972;2023-02-12T06:49:20;102990.31;;;7.93;100.00
11710;BME280;5911;51.036;6.972;2023-02-12T06:51:49;102988.44;;;7.95;100.00
11710;BME280;5911;51.036;6.972;2023-02-12T06:54:17;102950.66;;;7.72;100.00
11710;BME280;5911;51.036;6.972;2023-02-12T06:56:45;103000.69;;;7.96;100.00
11710;BME280;5911;51.036;6.972;2023-02-12T06:59:14;103001.53;;;7.96;100.00
11710;BME280;5911;51.036;6.972;2023-02-12T07:01:43;103007.66;;;7.97;100.00
11710;BME280;5911;51.036;6.972;2023-02-12T07:04:11;103003.28;;;7.97;100.00
11710;BME280;5911;51.036;6.972;2023-02-12T07:06:39;103009.28;;;8.01;100.00
11710;BME280;5911;51.036;6.972;2023-02-12T07:09:08;103015.38;;;8.03;100.00
11710;BME280;5911;51.036;6.972;2023-02-12T07:11:36;103018.91;;;8.02;100.00
11710;BME280;5911;51.036;6.972;2023-02-12T07:14:05;103022.38;;;8.02;100.00
11710;BME280;5911;51.036;6.972;2023-02-12T07:16:33;103006.03;;;7.94;100.00
11710;BME280;5911;51.036;6.972;2023-02-12T07:19:01;103016.28;;;8.02;100.00
11710;BME280;5911;51.036;6.972;2023-02-12T07:21:33;103017.19;;;8.01;100.00
11710;BME280;5911;51.036;6.972;2023-02-12T07:24:00;103024.16;;;8.02;100.00
11710;BME280;5911;51.036;6.972;2023-02-12T07:26:30;103019.66;;;8.05;100.00
11710;BME280;5911;51.036;6.972;2023-02-12T07:28:57;103022.25;;;8.07;100.00
11710;BME280;5911;51.036;6.972;2023-02-12T07:31:25;103023.16;;;8.06;100.00
11710;BME280;5911;51.036;6.972;2023-02-12T07:33:54;103024.06;;;8.05;100.00
11710;BME280;5911;51.036;6.972;2023-02-12T07:36:27;103020.44;;;8.09;100.00
11710;BME280;5911;51.036;6.972;2023-02-12T07:38:56;103022.94;;;8.12;100.00
11710;BME280;5911;51.036;6.972;2023-02-12T07:41:26;103030.78;;;8.13;100.00
11710;BME280;5911;51.036;6.972;2023-02-12T07:43:57;103032.44;;;8.16;100.00
11710;BME280;5911;51.036;6.972;2023-02-12T07:46:27;103029.81;;;8.16;100.00
11710;BME280;5911;51.036;6.972;2023-02-12T07:49:01;103036.66;;;8.22;100.00
11710;BME280;5911;51.036;6.972;2023-02-12T07:51:31;103041.88;;;8.23;100.00
11710;BME280;5911;51.036;6.972;2023-02-12T07:53:59;103039.25;;;8.23;100.00
11710;BME280;5911;51.036;6.972;2023-02-12T07:56:29;103046.16;;;8.26;100.00
11710;BME280;5911;51.036;6.972;2023-02-12T07:59:00;103043.41;;;8.29;100.00
11710;BME280;5911;51.036;6.972;2023-02-12T08:01:31;103038.13;;;8.30;100.00
11710;BME280;5911;51.036;6.972;2023-02-12T08:04:03;103046.03;;;8.29;100.00
11710;BME280;5911;51.036;6.972;2023-02-12T08:06:37;103042.50;;;8.30;100.00
11710;BME280;5911;51.036;6.972;2023-02-12T08:09:07;103049.44;;;8.34;100.00
11710;BME280;5911;51.036;6.972;2023-02-12T08:11:39;103039.19;;;8.25;100.00
11710;BME280;5911;51.036;6.972;2023-02-12T08:14:10;103051.97;;;8.37;100.00
11710;BME280;5911;51.036;6.972;2023-02-12T08:16:39;103048.47;;;8.36;100.00
11710;BME280;5911;51.036;6.972;2023-02-12T08:19:08;103056.13;;;8.42;100.00
11710;BME280;5911;51.036;6.972;2023-02-12T08:21:48;103051.59;;;8.48;100.00
11710;BME280;5911;51.036;6.972;2023-02-12T08:24:16;103055.22;;;8.43;100.00
11710;BME280;5911;51.036;6.972;2023-02-12T08:26:44;103051.50;;;8.51;100.00
11710;BME280;5911;51.036;6.972;2023-02-12T08:29:15;103054.81;;;8.56;100.00
11710;BME280;5911;51.036;6.972;2023-02-12T08:31:45;103057.34;;;8.59;100.00
11710;BME280;5911;51.036;6.972;2023-02-12T08:34:16;103060.75;;;8.62;100.00
11710;BME280;5911;51.036;6.972;2023-02-12T08:36:46;103065.94;;;8.64;100.00
11710;BME280;5911;51.036;6.972;2023-02-12T08:39:15;103060.59;;;8.67;100.00
11710;BME280;5911;51.036;6.972;2023-02-12T08:41:43;103060.59;;;8.67;100.00
11710;BME280;5911;51.036;6.972;2023-02-12T08:44:14;103066.53;;;8.72;100.00
11710;BME280;5911;51.036;6.972;2023-02-12T08:46:43;103064.72;;;8.74;100.00
11710;BME280;5911;51.036;6.972;2023-02-12T08:49:14;103069.81;;;8.78;100.00
11710;BME280;5911;51.036;6.972;2023-02-12T08:51:44;103058.44;;;8.78;100.00
11710;BME280;5911;51.036;6.972;2023-02-12T08:54:18;103069.63;;;8.85;100.00
11710;BME280;5911;51.036;6.972;2023-02-12T08:56:49;103055.75;;;8.79;100.00
11710;BME280;5911;51.036;6.972;2023-02-12T08:59:18;103056.50;;;8.83;100.00
11710;BME280;5911;51.036;6.972;2023-02-12T09:01:49;103067.63;;;8.91;100.00
11710;BME280;5911;51.036;6.972;2023-02-12T09:04:23;103065.91;;;8.90;100.00
11710;BME280;5911;51.036;6.972;2023-02-12T09:06:51;103061.28;;;8.97;100.00
11710;BME280;5911;51.036;6.972;2023-02-12T09:09:19;103069.25;;;8.95;100.00
11710;BME280;5911;51.036;6.972;2023-02-12T09:11:47;103068.91;;;9.04;100.00
11710;BME280;5911;51.036;6.972;2023-02-12T09:14:17;103068.75;;;9.09;100.00
11710;BME280;5911;51.036;6.972;2023-02-12T09:16:50;103061.91;;;9.03;100.00
11710;BME280;5911;51.036;6.972;2023-02-12T09:19:19;103070.47;;;9.10;100.00
11710;BME280;5911;51.036;6.972;2023-02-12T09:21:50;103079.06;;;9.15;100.00
11710;BME280;5911;51.036;6.972;2023-02-12T09:24:21;103080.78;;;9.16;100.00
11710;BME280;5911;51.036;6.972;2023-02-12T09:26:49;103080.72;;;9.17;100.00
11710;BME280;5911;51.036;6.972;2023-02-12T09:29:16;103081.50;;;9.20;100.00
11710;BME280;5911;51.036;6.972;2023-02-12T09:31:44;103080.50;;;9.24;100.00
11710;BME280;5911;51.036;6.972;2023-02-12T09:34:14;103074.09;;;9.31;100.00
11710;BME280;5911;51.036;6.972;2023-02-12T09:36:41;103078.66;;;9.26;100.00
11710;BME280;5911;51.036;6.972;2023-02-12T09:39:09;103075.00;;;9.30;100.00
11710;BME280;5911;51.036;6.972;2023-02-12T09:41:48;103078.31;;;9.35;100.00
11710;BME280;5911;51.036;6.972;2023-02-12T09:44:25;103087.84;;;9.39;100.00
11710;BME280;5911;51.036;6.972;2023-02-12T09:46:58;103079.06;;;9.38;100.00
11710;BME280;5911;51.036;6.972;2023-02-12T09:49:42;103085.94;;;9.42;100.00
11710;BME280;5911;51.036;6.972;2023-02-12T09:52:16;103078.00;;;9.44;100.00
11710;BME280;5911;51.036;6.972;2023-02-12T09:54:45;103081.28;;;9.49;100.00
11710;BME280;5911;51.036;6.972;2023-02-12T09:57:18;103082.00;;;9.54;100.00
11710;BME280;5911;51.036;6.972;2023-02-12T09:59:51;103069.78;;;9.51;100.00
11710;BME280;5911;51.036;6.972;2023-02-12T10:02:23;103078.28;;;9.60;100.00
11710;BME280;5911;51.036;6.972;2023-02-12T10:04:53;103078.88;;;9.66;100.00
11710;BME280;5911;51.036;6.972;2023-02-12T10:07:37;103086.84;;;9.65;100.00
11710;BME280;5911;51.036;6.972;2023-02-12T10:10:18;103089.53;;;9.63;100.00
11710;BME280;5911;51.036;6.972;2023-02-12T10:12:53;103093.78;;;9.67;100.00
11710;BME280;5911;51.036;6.972;2023-02-12T10:15:40;103079.53;;;9.73;100.00
11710;BME280;5911;51.036;6.972;2023-02-12T10:21:39;103089.91;;;9.77;100.00
11710;BME280;5911;51.036;6.972;2023-02-12T10:24:23;103090.56;;;9.82;100.00
11710;BME280;5911;51.036;6.972;2023-02-12T10:26:57;103084.16;;;9.90;100.00
11710;BME280;5911;51.036;6.972;2023-02-12T10:29:30;103089.38;;;9.91;100.00
11710;BME280;5911;51.036;6.972;2023-02-12T10:32:03;103085.06;;;9.88;100.00
11710;BME280;5911;51.036;6.972;2023-02-12T10:34:33;103082.38;;;9.90;100.00
11710;BME280;5911;51.036;6.972;2023-02-12T10:37:08;103078.63;;;9.96;100.00
11710;BME280;5911;51.036;6.972;2023-02-12T10:39:41;103073.56;;;9.91;100.00
11710;BME280;5911;51.036;6.972;2023-02-12T10:42:13;103085.72;;;9.94;100.00
11710;BME280;5911;51.036;6.972;2023-02-12T10:44:43;103081.09;;;10.00;100.00
11710;BME280;5911;51.036;6.972;2023-02-12T10:47:13;103077.59;;;10.00;100.00
11710;BME280;5911;51.036;6.972;2023-02-12T10:49:42;103073.91;;;10.04;100.00
11710;BME280;5911;51.036;6.972;2023-02-12T10:52:20;103080.97;;;10.03;100.00
11710;BME280;5911;51.036;6.972;2023-02-12T10:54:56;103080.91;;;10.05;100.00
11710;BME280;5911;51.036;6.972;2023-02-12T10:57:29;103069.00;;;10.16;100.00
11710;BME280;5911;51.036;6.972;2023-02-12T11:00:14;103073.34;;;10.19;100.00
11710;BME280;5911;51.036;6.972;2023-02-12T11:03:04;103066.22;;;10.21;100.00
11710;BME280;5911;51.036;6.972;2023-02-12T11:05:34;103074.94;;;10.23;100.00
11710;BME280;5911;51.036;6.972;2023-02-12T11:08:05;103075.09;;;10.18;100.00
11710;BME280;5911;51.036;6.972;2023-02-12T11:10:37;103062.66;;;10.22;100.00
11710;BME280;5911;51.036;6.972;2023-02-12T11:13:21;103073.28;;;10.20;100.00
11710;BME280;5911;51.036;6.972;2023-02-12T11:15:50;103058.97;;;10.26;100.00
11710;BME280;5911;51.036;6.972;2023-02-12T11:18:21;103055.66;;;10.21;100.00
11710;BME280;5911;51.036;6.972;2023-02-12T11:20:54;103045.06;;;10.23;100.00
11710;BME280;5911;51.036;6.972;2023-02-12T11:23:27;103055.28;;;10.30;100.00
11710;BME280;5911;51.036;6.972;2023-02-12T11:25:57;103060.50;;;10.32;100.00
11710;BME280;5911;51.036;6.972;2023-02-12T11:28:26;103055.03;;;10.36;100.00
11710;BME280;5911;51.036;6.972;2023-02-12T11:30:56;103054.19;;;10.36;100.00
11710;BME280;5911;51.036;6.972;2023-02-12T11:33:30;103048.22;;;10.31;100.00
11710;BME280;5911;51.036;6.972;2023-02-12T11:36:01;103044.84;;;10.27;100.00
11710;BME280;5911;51.036;6.972;2023-02-12T11:38:36;103048.28;;;10.29;100.00
11710;BME280;5911;51.036;6.972;2023-02-12T11:41:16;103039.22;;;10.36;100.00
11710;BME280;5911;51.036;6.972;2023-02-12T11:43:47;103033.31;;;10.30;100.00
11710;BME280;5911;51.036;6.972;2023-02-12T11:46:21;103028.91;;;10.30;100.00
11710;BME280;5911;51.036;6.972;2023-02-12T11:48:51;103031.47;;;10.32;100.00
11710;BME280;5911;51.036;6.972;2023-02-12T11:51:24;103038.41;;;10.34;100.00
11710;BME280;5911;51.036;6.972;2023-02-12T11:53:58;103017.50;;;10.30;100.00
11710;BME280;5911;51.036;6.972;2023-02-12T11:56:40;103032.22;;;10.35;100.00
11710;BME280;5911;51.036;6.972;2023-02-12T11:59:16;103025.16;;;10.36;100.00
11710;BME280;5911;51.036;6.972;2023-02-12T12:01:50;103023.50;;;10.33;100.00
11710;BME280;5911;51.036;6.972;2023-02-12T12:04:22;103023.38;;;10.36;100.00
11710;BME280;5911;51.036;6.972;2023-02-12T12:06:53;103016.09;;;10.41;100.00
11710;BME280;5911;51.036;6.972;2023-02-12T12:09:25;103018.56;;;10.46;100.00
11710;BME280;5911;51.036;6.972;2023-02-12T12:11:58;103017.94;;;10.39;100.00
11710;BME280;5911;51.036;6.972;2023-02-12T12:14:32;103010.13;;;10.38;100.00
11710;BME280;5911;51.036;6.972;2023-02-12T12:17:24;103009.34;;;10.36;100.00
11710;BME280;5911;51.036;6.972;2023-02-12T12:20:16;102998.16;;;10.29;100.00
11710;BME280;5911;51.036;6.972;2023-02-12T12:22:49;103013.47;;;10.41;100.00
11710;BME280;5911;51.036;6.972;2023-02-12T12:25:25;103003.94;;;10.39;100.00
11710;BME280;5911;51.036;6.972;2023-02-12T12:27:59;102998.31;;;10.46;100.00
11710;BME280;5911;51.036;6.972;2023-02-12T12:30:44;102996.34;;;10.51;100.00
11710;BME280;5911;51.036;6.972;2023-02-12T12:33:18;102997.91;;;10.55;100.00
11710;BME280;5911;51.036;6.972;2023-02-12T12:35:59;102991.50;;;10.61;100.00
11710;BME280;5911;51.036;6.972;2023-02-12T12:38:39;102989.22;;;10.53;100.00
11710;BME280;5911;51.036;6.972;2023-02-12T12:41:20;102990.91;;;10.54;100.00
11710;BME280;5911;51.036;6.972;2023-02-12T12:44:01;102961.50;;;10.43;100.00
11710;BME280;5911;51.036;6.972;2023-02-12T12:46:43;102978.44;;;10.58;100.00
11710;BME280;5911;51.036;6.972;2023-02-12T12:52:32;102963.22;;;10.65;100.00
11710;BME280;5911;51.036;6.972;2023-02-12T12:55:37;102963.84;;;10.70;100.00
11710;BME280;5911;51.036;6.972;2023-02-12T12:58:13;102961.19;;;10.70;100.00
11710;BME280;5911;51.036;6.972;2023-02-12T13:01:00;102961.88;;;10.75;100.00
11710;BME280;5911;51.036;6.972;2023-02-12T13:03:46;102949.47;;;10.77;100.00
11710;BME280;5911;51.036;6.972;2023-02-12T13:06:32;102946.94;;;10.74;100.00
11710;BME280;5911;51.036;6.972;2023-02-12T13:09:23;102939.81;;;10.76;100.00
11710;BME280;5911;51.036;6.972;2023-02-12T13:12:10;102945.81;;;10.79;100.00
11710;BME280;5911;51.036;6.972;2023-02-12T13:14:46;102937.06;;;10.79;100.00
11710;BME280;5911;51.036;6.972;2023-02-12T13:17:20;102946.16;;;10.72;100.00
11710;BME280;5911;51.036;6.972;2023-02-12T13:19:57;102950.19;;;10.80;100.00
11710;BME280;5911;51.036;6.972;2023-02-12T13:22:33;102947.59;;;10.79;100.00
11710;BME280;5911;51.036;6.972;2023-02-12T13:25:17;102940.41;;;10.82;100.00
11710;BME280;5911;51.036;6.972;2023-02-12T13:27:50;102933.34;;;10.83;100.00
11710;BME280;5911;51.036;6.972;2023-02-12T13:30:24;102939.50;;;10.83;100.00
11710;BME280;5911;51.036;6.972;2023-02-12T13:33:04;102918.91;;;10.71;100.00
11710;BME280;5911;51.036;6.972;2023-02-12T13:35:36;102933.50;;;10.80;100.00